createdAt,value
2022-10-21T00:02:23.899Z,4.00
2022-10-21T00:04:50.481Z,4.03
2022-10-21T00:07:17.100Z,5.32
2022-10-21T00:09:43.808Z,4.00
2022-10-21T00:12:10.374Z,4.63
2022-10-21T00:14:37.029Z,4.10
2022-10-21T00:17:03.654Z,3.90
2022-10-21T00:19:30.290Z,4.22
2022-10-21T00:21:56.855Z,4.80
2022-10-21T00:24:23.443Z,4.60
2022-10-21T00:26:50.763Z,4.70
2022-10-21T00:29:17.394Z,4.23
2022-10-21T00:31:44.075Z,5.50
2022-10-21T00:34:10.698Z,4.88
2022-10-21T00:36:37.314Z,4.80
2022-10-21T00:39:03.996Z,5.13
2022-10-21T00:41:30.828Z,4.27
2022-10-21T00:44:05.822Z,4.13
2022-10-21T00:49:34.410Z,5.87
2022-10-21T00:52:01.214Z,6.67
2022-10-21T00:54:27.921Z,4.23
2022-10-21T00:56:54.856Z,5.60
2022-10-21T00:59:22.824Z,4.50
2022-10-21T01:01:49.447Z,4.20
2022-10-21T01:04:16.145Z,4.23
2022-10-21T01:06:42.821Z,4.20
2022-10-21T01:09:09.509Z,4.70
2022-10-21T01:11:43.461Z,4.33
2022-10-21T01:14:16.524Z,4.90
2022-10-21T01:17:43.599Z,4.32
2022-10-21T01:24:12.402Z,4.27
2022-10-21T01:27:05.759Z,3.77
2022-10-21T01:29:49.202Z,3.73
2022-10-21T01:32:57.079Z,3.80
2022-10-21T01:35:56.935Z,4.77
2022-10-21T01:38:23.407Z,4.40
2022-10-21T01:40:58.950Z,3.93
2022-10-21T01:43:57.882Z,4.60
2022-10-21T01:46:39.249Z,4.03
2022-10-21T01:49:13.935Z,4.57
2022-10-21T01:51:40.556Z,4.53
2022-10-21T01:54:10.032Z,4.50
2022-10-21T01:56:36.722Z,3.93
2022-10-21T01:59:03.365Z,4.70
2022-10-21T02:01:30.102Z,4.37
2022-10-21T02:03:58.093Z,4.60
2022-10-21T02:06:25.383Z,4.70
2022-10-21T02:08:52.495Z,4.57
2022-10-21T02:11:19.335Z,4.73
2022-10-21T02:13:51.600Z,4.57
2022-10-21T02:16:18.709Z,4.70
2022-10-21T02:18:45.364Z,5.20
2022-10-21T02:21:19.046Z,4.13
2022-10-21T02:23:57.647Z,4.37
2022-10-21T02:26:25.834Z,4.50
2022-10-21T02:28:53.053Z,4.03
2022-10-21T02:31:33.750Z,4.30
2022-10-21T02:34:15.862Z,4.53
2022-10-21T02:37:09.369Z,3.83
2022-10-21T02:39:43.199Z,4.63
2022-10-21T02:42:11.012Z,3.87
2022-10-21T02:44:37.736Z,4.20
2022-10-21T02:47:04.361Z,4.70
2022-10-21T02:49:31.113Z,4.40
2022-10-21T02:51:57.854Z,4.57
2022-10-21T02:54:24.602Z,3.60
2022-10-21T02:56:51.204Z,4.90
2022-10-21T02:59:17.762Z,4.57
2022-10-21T03:01:44.378Z,4.60
2022-10-21T03:04:10.984Z,5.10
2022-10-21T03:06:37.570Z,4.60
2022-10-21T03:09:05.521Z,4.97
2022-10-21T03:11:32.193Z,4.97
2022-10-21T03:14:01.831Z,4.40
2022-10-21T03:16:59.352Z,4.37
2022-10-21T03:19:25.935Z,4.03
2022-10-21T03:21:52.569Z,4.40
2022-10-21T03:24:27.909Z,3.67
2022-10-21T03:26:55.305Z,4.27
2022-10-21T03:29:22.205Z,4.27
2022-10-21T03:31:48.920Z,4.70
2022-10-21T03:34:15.617Z,4.23
2022-10-21T03:36:42.259Z,4.43
2022-10-21T03:39:10.133Z,4.00
2022-10-21T03:41:36.740Z,4.80
2022-10-21T03:44:03.419Z,4.17
2022-10-21T03:46:30.017Z,4.90
2022-10-21T03:49:01.003Z,4.53
2022-10-21T03:51:31.268Z,5.10
2022-10-21T03:53:58.265Z,4.20
2022-10-21T03:56:24.871Z,4.03
2022-10-21T03:58:54.004Z,5.77
2022-10-21T04:01:24.364Z,4.28
2022-10-21T04:03:51.057Z,4.57
2022-10-21T04:06:17.756Z,4.50
2022-10-21T04:08:44.451Z,4.05
2022-10-21T04:11:11.123Z,4.10
2022-10-21T04:13:37.743Z,4.10
2022-10-21T04:16:05.781Z,4.22
2022-10-21T04:18:32.379Z,4.20
2022-10-21T04:20:58.996Z,3.97
2022-10-21T04:23:25.814Z,4.07
2022-10-21T04:25:52.403Z,4.68
2022-10-21T04:28:18.975Z,3.90
2022-10-21T04:30:45.535Z,4.10
2022-10-21T04:33:12.184Z,4.77
2022-10-21T04:35:39.610Z,3.63
2022-10-21T04:38:06.268Z,3.33
2022-10-21T04:40:32.997Z,4.40
2022-10-21T04:42:59.623Z,4.40
2022-10-21T04:46:03.082Z,4.43
2022-10-21T04:48:29.746Z,3.90
2022-10-21T04:50:56.478Z,4.13
2022-10-21T04:53:23.363Z,4.90
2022-10-21T04:55:53.407Z,4.25
2022-10-21T04:58:22.013Z,4.97
2022-10-21T05:00:50.097Z,4.47
2022-10-21T05:03:16.781Z,3.97
2022-10-21T05:05:43.352Z,4.43
2022-10-21T05:08:11.631Z,4.82
2022-10-21T05:10:38.563Z,4.65
2022-10-21T05:13:06.187Z,4.10
2022-10-21T05:15:33.178Z,4.50
2022-10-21T05:17:59.823Z,4.72
2022-10-21T05:20:26.413Z,4.32
2022-10-21T05:22:53.618Z,4.57
2022-10-21T05:25:20.592Z,4.93
2022-10-21T05:27:47.186Z,4.45
2022-10-21T05:30:14.116Z,4.57
2022-10-21T05:32:41.182Z,4.30
2022-10-21T05:35:07.981Z,4.03
2022-10-21T05:37:34.610Z,4.35
2022-10-21T05:40:01.238Z,4.63
2022-10-21T05:42:27.879Z,4.20
2022-10-21T05:44:54.851Z,4.45
2022-10-21T05:47:21.551Z,4.82
2022-10-21T05:49:48.200Z,4.53
2022-10-21T05:52:14.837Z,4.07
2022-10-21T05:54:41.428Z,4.32
2022-10-21T05:57:07.998Z,4.25
2022-10-21T05:59:34.612Z,4.38
2022-10-21T06:02:01.836Z,4.35
2022-10-21T06:04:28.420Z,4.20
2022-10-21T06:06:55.141Z,4.15
2022-10-21T06:09:21.815Z,4.53
2022-10-21T06:11:48.411Z,4.35
2022-10-21T06:14:15.095Z,4.13
2022-10-21T06:16:41.797Z,4.40
2022-10-21T06:19:08.391Z,4.53
2022-10-21T06:21:35.057Z,4.60
2022-10-21T06:24:01.795Z,4.47
2022-10-21T06:26:30.943Z,4.57
2022-10-21T06:28:59.988Z,4.40
2022-10-21T06:31:26.620Z,4.63
2022-10-21T06:33:53.226Z,4.47
2022-10-21T06:36:19.853Z,3.80
2022-10-21T06:38:46.546Z,4.22
2022-10-21T06:41:13.792Z,4.20
2022-10-21T06:43:41.268Z,4.60
2022-10-21T06:46:09.927Z,4.38
2022-10-21T06:48:36.595Z,4.38
2022-10-21T06:51:08.988Z,3.97
2022-10-21T06:53:38.969Z,4.05
2022-10-21T06:56:13.724Z,3.88
2022-10-21T06:58:43.467Z,5.03
2022-10-21T07:01:21.392Z,4.55
2022-10-21T07:03:57.818Z,4.13
2022-10-21T07:06:24.638Z,6.15
2022-10-21T07:08:57.823Z,4.15
2022-10-21T07:11:25.380Z,4.10
2022-10-21T07:13:51.992Z,4.75
2022-10-21T07:16:24.981Z,3.85
2022-10-21T07:18:51.710Z,4.63
2022-10-21T07:21:19.159Z,4.05
2022-10-21T07:23:46.138Z,3.90
2022-10-21T07:26:12.881Z,3.80
2022-10-21T07:28:40.324Z,3.42
2022-10-21T07:31:06.894Z,3.53
2022-10-21T07:33:34.654Z,3.30
2022-10-21T07:36:09.382Z,3.50
2022-10-21T07:38:36.206Z,3.45
2022-10-21T07:41:02.911Z,3.90
2022-10-21T07:43:29.577Z,2.85
2022-10-21T07:45:59.066Z,3.83
2022-10-21T07:48:28.300Z,3.20
2022-10-21T07:50:55.020Z,3.65
2022-10-21T07:53:25.935Z,3.80
2022-10-21T07:56:01.808Z,2.97
2022-10-21T07:58:29.368Z,2.90
2022-10-21T08:00:59.070Z,3.15
2022-10-21T08:03:25.745Z,3.40
2022-10-21T08:05:52.632Z,3.03
2022-10-21T08:08:21.822Z,3.15
2022-10-21T08:13:17.265Z,3.20
2022-10-21T08:15:48.781Z,3.10
2022-10-21T08:18:15.528Z,3.45
2022-10-21T08:20:43.545Z,3.50
2022-10-21T08:23:11.302Z,3.75
2022-10-21T08:25:37.936Z,3.60
2022-10-21T08:28:05.307Z,3.50
2022-10-21T08:30:32.259Z,3.92
2022-10-21T08:32:59.205Z,3.97
2022-10-21T08:35:26.760Z,3.67
2022-10-21T08:37:53.876Z,3.17
2022-10-21T08:40:20.538Z,3.70
2022-10-21T08:42:47.216Z,3.97
2022-10-21T08:45:34.638Z,3.50
2022-10-21T08:48:03.559Z,3.67
2022-10-21T08:50:33.665Z,3.65
2022-10-21T08:53:27.542Z,4.00
2022-10-21T08:55:58.857Z,3.45
2022-10-21T08:58:25.469Z,3.92
2022-10-21T09:00:58.933Z,3.50
2022-10-21T09:03:25.518Z,3.75
2022-10-21T09:06:10.399Z,4.00
2022-10-21T09:08:52.521Z,4.00
2022-10-21T09:11:45.415Z,3.80
2022-10-21T09:14:43.114Z,4.35
2022-10-21T09:17:21.408Z,4.20
2022-10-21T09:20:07.788Z,3.45
2022-10-21T09:23:22.461Z,4.35
2022-10-21T09:25:57.017Z,4.47
2022-10-21T09:28:23.661Z,4.10
2022-10-21T09:30:50.308Z,4.63
2022-10-21T09:33:18.815Z,4.00
2022-10-21T09:35:51.835Z,4.10
2022-10-21T09:38:33.843Z,4.10
2022-10-21T09:41:03.518Z,8.70
2022-10-21T09:43:30.455Z,3.97
2022-10-21T09:45:57.375Z,3.97
2022-10-21T09:48:33.794Z,4.20
2022-10-21T09:51:06.970Z,3.40
2022-10-21T09:53:34.688Z,3.72
2022-10-21T09:56:03.915Z,3.92
2022-10-21T09:58:36.683Z,4.05
2022-10-21T10:01:03.631Z,3.83
2022-10-21T10:03:35.204Z,3.85
2022-10-21T10:06:01.992Z,3.30
2022-10-21T10:08:41.329Z,3.97
2022-10-21T10:11:13.659Z,3.60
2022-10-21T10:13:48.021Z,3.70
2022-10-21T10:16:14.774Z,3.70
2022-10-21T10:18:42.205Z,3.72
2022-10-21T10:21:16.043Z,3.65
2022-10-21T10:23:50.163Z,3.28
2022-10-21T10:26:28.348Z,3.57
2022-10-21T10:29:08.214Z,3.33
2022-10-21T10:31:34.905Z,4.40
2022-10-21T10:34:19.690Z,3.63
2022-10-21T10:36:46.666Z,3.72
2022-10-21T10:39:19.738Z,4.18
2022-10-21T10:41:47.826Z,4.00
2022-10-21T10:44:41.208Z,3.38
2022-10-21T10:47:09.445Z,3.78
2022-10-21T10:49:38.448Z,4.22
2022-10-21T10:52:11.103Z,3.47
2022-10-21T10:54:38.678Z,4.10
2022-10-21T10:57:20.933Z,3.90
2022-10-21T10:59:51.507Z,4.15
2022-10-21T11:02:34.340Z,3.97
2022-10-21T11:05:00.841Z,3.80
2022-10-21T11:07:33.171Z,4.53
2022-10-21T11:10:08.217Z,3.55
2022-10-21T11:12:34.844Z,4.43
2022-10-21T11:15:01.524Z,4.00
2022-10-21T11:17:36.899Z,4.10
2022-10-21T11:20:07.121Z,4.10
2022-10-21T11:22:56.507Z,4.30
2022-10-21T11:25:26.542Z,4.57
2022-10-21T11:28:09.161Z,3.80
2022-10-21T11:30:44.625Z,3.95
2022-10-21T11:33:31.013Z,4.20
2022-10-21T11:36:20.201Z,3.65
2022-10-21T11:39:21.352Z,4.30
2022-10-21T11:41:49.682Z,4.20
2022-10-21T11:44:38.528Z,4.60
2022-10-21T11:47:20.039Z,4.03
2022-10-21T11:49:52.832Z,4.30
2022-10-21T11:52:44.505Z,3.88
2022-10-21T11:55:35.460Z,4.22
2022-10-21T11:58:23.357Z,4.20
2022-10-21T12:00:59.015Z,4.43
2022-10-21T12:03:37.036Z,5.05
2022-10-21T12:06:12.795Z,4.28
2022-10-21T12:08:51.522Z,4.07
2022-10-21T12:11:29.548Z,4.13
2022-10-21T12:14:08.473Z,3.90
2022-10-21T12:16:35.053Z,4.30
2022-10-21T12:19:05.676Z,4.22
2022-10-21T12:21:35.402Z,7.40
2022-10-21T12:24:10.937Z,3.88
2022-10-21T12:26:43.183Z,4.55
2022-10-21T12:29:54.379Z,4.10
2022-10-21T12:32:51.134Z,4.53
2022-10-21T12:35:28.825Z,3.92
2022-10-21T12:37:55.347Z,4.30
2022-10-21T12:40:27.727Z,3.80
2022-10-21T12:42:59.636Z,4.68
2022-10-21T12:45:34.183Z,4.40
2022-10-21T12:48:00.826Z,4.45
2022-10-21T12:50:31.379Z,4.57
2022-10-21T12:53:12.491Z,4.40
2022-10-21T12:55:42.091Z,4.32
2022-10-21T12:58:34.221Z,4.93
2022-10-21T13:01:02.371Z,4.43
2022-10-21T13:03:52.180Z,4.97
2022-10-21T13:06:41.524Z,5.18
2022-10-21T13:09:42.326Z,5.00
2022-10-21T13:12:08.778Z,4.70
2022-10-21T13:14:47.441Z,4.07
2022-10-21T13:17:23.238Z,4.32
2022-10-21T13:19:50.583Z,4.20
2022-10-21T13:22:48.417Z,4.32
2022-10-21T13:25:29.032Z,4.15
2022-10-21T13:28:14.533Z,4.40
2022-10-21T13:30:59.654Z,4.28
2022-10-21T13:33:27.128Z,4.60
2022-10-21T13:35:55.943Z,4.10
2022-10-21T13:38:22.498Z,3.90
2022-10-21T13:40:51.247Z,4.00
2022-10-21T13:43:21.985Z,4.15
2022-10-21T13:45:50.036Z,4.13
2022-10-21T13:48:20.533Z,4.35
2022-10-21T13:50:48.976Z,4.38
2022-10-21T13:53:15.574Z,4.07
2022-10-21T13:55:42.168Z,4.03
2022-10-21T13:58:17.940Z,3.95
2022-10-21T14:00:44.631Z,4.18
2022-10-21T14:03:17.575Z,3.88
2022-10-21T14:05:51.707Z,4.10
2022-10-21T14:08:33.369Z,4.00
2022-10-21T14:11:01.587Z,3.92
2022-10-21T14:13:31.490Z,3.83
2022-10-21T14:15:58.393Z,4.25
2022-10-21T14:18:36.472Z,4.05
2022-10-21T14:21:04.443Z,4.32
2022-10-21T14:23:31.076Z,5.22
2022-10-21T14:26:04.739Z,4.15
2022-10-21T14:28:32.388Z,4.30
2022-10-21T14:31:01.255Z,4.53
2022-10-21T14:33:29.845Z,4.32
2022-10-21T14:36:10.771Z,4.15
2022-10-21T14:38:52.104Z,3.90
2022-10-21T14:41:38.366Z,4.10
2022-10-21T14:44:26.532Z,4.35
2022-10-21T14:46:56.039Z,10.15
2022-10-21T14:49:33.450Z,4.60
2022-10-21T14:52:07.631Z,4.30
2022-10-21T14:54:43.084Z,4.95
2022-10-21T14:57:41.571Z,5.35
2022-10-21T15:00:18.130Z,4.15
2022-10-21T15:02:44.770Z,4.75
2022-10-21T15:05:43.008Z,5.05
2022-10-21T15:08:19.412Z,5.03
2022-10-21T15:10:46.956Z,4.90
2022-10-21T15:13:17.545Z,4.70
2022-10-21T15:15:53.300Z,5.07
2022-10-21T15:18:24.874Z,5.40
2022-10-21T15:20:52.056Z,5.88
2022-10-21T15:23:20.193Z,6.00
2022-10-21T15:25:47.096Z,4.75
2022-10-21T15:28:16.505Z,4.68
2022-10-21T15:30:45.053Z,4.43
2022-10-21T15:33:11.994Z,4.60
2022-10-21T15:35:38.636Z,4.65
2022-10-21T15:38:05.229Z,4.30
2022-10-21T15:40:33.992Z,4.60
2022-10-21T15:43:00.757Z,4.82
2022-10-21T15:45:27.335Z,4.85
2022-10-21T15:47:54.883Z,5.57
2022-10-21T15:50:23.521Z,5.30
2022-10-21T15:52:50.209Z,5.57
2022-10-21T15:55:16.927Z,5.18
2022-10-21T15:57:44.632Z,5.18
2022-10-21T16:00:21.866Z,6.43
2022-10-21T16:02:49.202Z,4.78
2022-10-21T16:05:16.108Z,5.10
2022-10-21T16:07:43.025Z,5.57
2022-10-21T16:10:27.161Z,5.10
2022-10-21T16:12:54.456Z,5.05
2022-10-21T16:15:21.230Z,5.03
2022-10-21T16:17:50.085Z,5.20
2022-10-21T16:20:24.824Z,4.78
2022-10-21T16:22:51.481Z,4.75
2022-10-21T16:25:18.105Z,5.68
2022-10-21T16:27:55.676Z,5.35
2022-10-21T16:30:30.234Z,5.32
2022-10-21T16:32:57.402Z,5.75
2022-10-21T16:35:24.071Z,5.05
2022-10-21T16:37:50.757Z,5.72
2022-10-21T16:40:19.197Z,5.30
2022-10-21T16:42:45.783Z,5.95
2022-10-21T16:45:13.472Z,5.35
2022-10-21T16:47:42.748Z,5.70
2022-10-21T16:50:11.722Z,6.10
2022-10-21T16:52:38.739Z,5.60
2022-10-21T16:55:07.074Z,5.82
2022-10-21T16:57:33.658Z,5.65
2022-10-21T17:00:00.311Z,6.50
2022-10-21T17:02:26.912Z,5.93
2022-10-21T17:04:53.552Z,5.25
2022-10-21T17:07:20.209Z,5.32
2022-10-21T17:09:46.773Z,5.78
2022-10-21T17:12:13.353Z,5.45
2022-10-21T17:14:40.130Z,5.80
2022-10-21T17:17:06.734Z,5.88
2022-10-21T17:19:33.327Z,7.03
2022-10-21T17:21:59.990Z,5.57
2022-10-21T17:24:28.114Z,5.63
2022-10-21T17:26:56.380Z,4.97
2022-10-21T17:29:23.364Z,5.80
2022-10-21T17:31:50.041Z,5.35
2022-10-21T17:34:27.868Z,5.97
2022-10-21T17:36:54.615Z,5.43
2022-10-21T17:39:21.436Z,5.95
2022-10-21T17:44:19.804Z,6.20
2022-10-21T17:46:47.766Z,5.93
2022-10-21T17:49:14.464Z,6.00
2022-10-21T17:51:41.131Z,5.80
2022-10-21T17:54:07.839Z,6.25
2022-10-21T17:56:34.471Z,6.28
2022-10-21T17:59:01.702Z,5.57
2022-10-21T18:01:28.389Z,4.80
2022-10-21T18:03:57.200Z,5.40
2022-10-21T18:06:23.878Z,6.32
2022-10-21T18:08:50.576Z,5.63
2022-10-21T18:11:18.591Z,5.90
2022-10-21T18:13:46.853Z,6.53
2022-10-21T18:16:20.919Z,5.78
2022-10-21T18:18:47.862Z,6.10
2022-10-21T18:21:19.897Z,5.57
2022-10-21T18:23:48.136Z,7.00
2022-10-21T18:26:35.186Z,5.63
2022-10-21T18:29:03.118Z,6.15
2022-10-21T18:31:31.948Z,7.07
2022-10-21T18:33:59.385Z,6.03
2022-10-21T18:36:26.270Z,6.25
2022-10-21T18:38:53.357Z,6.00
2022-10-21T18:41:21.238Z,6.45
2022-10-21T18:43:49.592Z,6.32
2022-10-21T18:46:16.240Z,6.82
2022-10-21T18:48:42.966Z,7.13
2022-10-21T18:51:10.549Z,8.85
2022-10-21T18:53:37.624Z,7.18
2022-10-21T18:56:05.806Z,7.53
2022-10-21T18:58:32.693Z,7.13
2022-10-21T19:00:59.563Z,6.50
2022-10-21T19:03:26.431Z,7.70
2022-10-21T19:05:53.099Z,6.82
2022-10-21T19:08:20.562Z,6.50
2022-10-21T19:10:47.406Z,7.10
2022-10-21T19:13:14.138Z,6.28
2022-10-21T19:15:41.533Z,6.13
2022-10-21T19:18:11.658Z,6.50
2022-10-21T19:20:39.141Z,6.55
2022-10-21T19:23:05.826Z,7.53
2022-10-21T19:25:32.715Z,11.43
2022-10-21T19:27:59.379Z,10.18
2022-10-21T19:30:26.264Z,8.48
2022-10-21T19:32:52.913Z,6.97
2022-10-21T19:35:19.613Z,7.13
2022-10-21T19:37:46.933Z,7.57
2022-10-21T19:40:13.619Z,6.95
2022-10-21T19:42:41.724Z,7.80
2022-10-21T19:45:10.636Z,7.22
2022-10-21T19:47:37.993Z,6.88
2022-10-21T19:50:05.105Z,7.50
2022-10-21T19:52:31.898Z,7.00
2022-10-21T19:54:58.516Z,7.60
2022-10-21T19:57:25.150Z,6.95
2022-10-21T19:59:51.744Z,7.43
2022-10-21T20:02:18.431Z,6.20
2022-10-21T20:04:45.105Z,7.05
2022-10-21T20:07:11.803Z,7.40
2022-10-21T20:09:39.003Z,12.25
2022-10-21T20:12:05.805Z,7.80
2022-10-21T20:14:32.479Z,9.15
2022-10-21T20:16:59.069Z,8.00
2022-10-21T20:19:25.716Z,6.47
2022-10-21T20:21:52.328Z,7.97
2022-10-21T20:24:19.102Z,7.65
2022-10-21T20:26:49.173Z,6.90
2022-10-21T20:29:15.904Z,7.45
2022-10-21T20:31:42.537Z,7.63
2022-10-21T20:34:12.400Z,8.93
2022-10-21T20:36:39.160Z,9.20
2022-10-21T20:39:05.833Z,8.77
2022-10-21T20:41:34.691Z,7.68
2022-10-21T20:44:01.991Z,7.10
2022-10-21T20:46:29.637Z,7.18
2022-10-21T20:48:56.438Z,6.65
2022-10-21T20:51:25.121Z,6.05
2022-10-21T20:53:54.779Z,6.50
2022-10-21T20:56:21.559Z,9.52
2022-10-21T20:58:48.324Z,8.80
2022-10-21T21:01:19.848Z,7.40
2022-10-21T21:03:49.326Z,7.90
2022-10-21T21:06:16.001Z,7.80
2022-10-21T21:08:48.929Z,7.53
2022-10-21T21:11:25.200Z,7.45
2022-10-21T21:13:51.855Z,7.80
2022-10-21T21:16:20.205Z,7.80
2022-10-21T21:18:57.085Z,7.30
2022-10-21T21:21:26.214Z,8.45
2022-10-21T21:23:53.150Z,6.88
2022-10-21T21:26:21.619Z,7.82
2022-10-21T21:28:48.318Z,6.78
2022-10-21T21:31:15.504Z,6.60
2022-10-21T21:33:47.885Z,6.75
2022-10-21T21:36:15.316Z,6.70
2022-10-21T21:38:42.060Z,8.88
2022-10-21T21:41:10.652Z,16.30
2022-10-21T21:43:37.557Z,13.18
2022-10-21T21:46:04.537Z,7.53
2022-10-21T21:48:31.670Z,7.30
2022-10-21T21:51:02.344Z,7.00
2022-10-21T21:53:29.066Z,7.28
2022-10-21T21:55:59.712Z,7.15
2022-10-21T21:58:28.821Z,7.40
2022-10-21T22:00:55.413Z,7.50
2022-10-21T22:03:22.557Z,7.40
2022-10-21T22:05:50.261Z,15.13
2022-10-21T22:08:16.965Z,11.30
2022-10-21T22:10:43.625Z,14.05
2022-10-21T22:13:12.731Z,16.65
2022-10-21T22:15:54.662Z,13.70
2022-10-21T22:18:21.503Z,9.75
2022-10-21T22:20:49.321Z,8.93
2022-10-21T22:23:16.585Z,8.95
2022-10-21T22:25:43.155Z,8.25
2022-10-21T22:28:09.735Z,7.38
2022-10-21T22:30:36.322Z,6.93
2022-10-21T22:33:02.916Z,6.53
2022-10-21T22:35:29.651Z,7.90
2022-10-21T22:37:56.230Z,8.18
2022-10-21T22:40:22.863Z,10.38
2022-10-21T22:42:49.660Z,8.30
2022-10-21T22:45:16.271Z,9.27
2022-10-21T22:47:43.267Z,10.40
2022-10-21T22:50:10.007Z,7.70
2022-10-21T22:52:36.559Z,7.28
2022-10-21T22:55:03.361Z,8.25
2022-10-21T22:57:30.027Z,8.50
2022-10-21T22:59:56.600Z,7.28
2022-10-21T23:02:23.185Z,8.00
2022-10-21T23:04:49.838Z,8.15
2022-10-21T23:07:16.399Z,6.95
2022-10-21T23:09:43.000Z,8.10
2022-10-21T23:12:09.642Z,7.18
2022-10-21T23:14:36.203Z,7.00
2022-10-21T23:17:02.795Z,7.70
2022-10-21T23:19:29.428Z,9.35
2022-10-21T23:21:56.024Z,7.97
2022-10-21T23:24:22.652Z,7.35
2022-10-21T23:26:49.245Z,7.28
2022-10-21T23:29:15.867Z,7.80
2022-10-21T23:31:42.444Z,7.28
2022-10-21T23:34:09.505Z,7.75
2022-10-21T23:36:36.342Z,7.07
2022-10-21T23:39:03.292Z,7.45
2022-10-21T23:41:30.077Z,8.00
2022-10-21T23:43:56.653Z,7.82
2022-10-21T23:46:23.365Z,8.95
2022-10-21T23:48:50.014Z,7.50
2022-10-21T23:51:16.613Z,8.65
2022-10-21T23:53:43.196Z,9.02
2022-10-21T23:56:09.801Z,7.38
2022-10-21T23:58:36.402Z,7.40
